Etusivu
METAR-TAF:

METAR-TAF

Lentoasemat :

Bergenin lentoasema

Bergen, Norja

Leveyspiiri: 60-17N, Pituuspiiri: 005-14E, korkeus merenpinnasta: 5 m

Tämänhetkinen sää

Tämä raportti tehtiin 28 minuuttia sitten, kello 17.50 UTC
tyyntä
Lämpötila 2°C
Kosteus 93%
Ilmanpaine 1035 hPa
Näkyvyys 10 km tai enemmän
Muutamia pilviä 300 ft:n korkeudessa

METAR: ENBR 191750Z 00000KT 9999 FEW003 02/01 Q1035 TEMPO 1500 BCFG RMK WIND 1200FT 35005KT

Aika: 19:18 (18:18 UTC)

Sääennuste

Ennuste voimassa 19. päivästä klo 18 UTC - 20. päivään klo 18 UTC
Tuuli 3 kn eri suunnista
Näkyvyys 10 km tai enemmän
Muutamia pilviä 200 ft:n korkeudessa
Todennäköisyys 40%
19. päivästä klo 18 UTC - 20. päivään klo 09 UTC
Näkyvyys: 1200 m
sumuhattaroita

TAF: ENBR 1918/2018 VRB03KT 9999 FEW002 PROB40 1918/2009 1200 BCFG

Säähavainnot ja -ennusteet yli 4000 lentoasemalta (METAR- ja TAF-raportit).

Käytössä olevat sääasemat on merkitty karttaan keltaisilla ja punaisilla pisteillä.

Aseta hiiri pisteen päälle nähdäksesi sääaseman nimen.

Klikkaa sitten nähdäksesi säähavainnot ja -ennusteet.

Kartan vaihtaminen: klikkaa mustalla rastilla varustettuja vihreitä pisteitä, niin voit zoomata sisään; viivalla varustettua vihreää pistettä, niin voit zoomata ulos tai vihreitä nuolia, niin pääset viereisille kartoille.


METAR-TAF: